createdAt,value
2018-04-02T00:00:39.866Z,17.72
2018-04-02T00:02:45.459Z,16.91
2018-04-02T00:04:51.539Z,16.88
2018-04-02T00:06:56.861Z,16.86
2018-04-02T00:09:02.564Z,17.06
2018-04-02T00:11:08.924Z,17.19
2018-04-02T00:13:14.453Z,17.08
2018-04-02T00:15:21.040Z,17.34
2018-04-02T00:17:27.536Z,16.95
2018-04-02T00:19:33.569Z,16.55
2018-04-02T00:21:40.352Z,15.48
2018-04-02T00:23:48.232Z,15.75
2018-04-02T00:25:54.454Z,15.36
2018-04-02T00:28:01.048Z,15.77
2018-04-02T00:30:16.218Z,15.29
2018-04-02T00:32:26.445Z,15.55
2018-04-02T00:34:32.218Z,14.94
2018-04-02T00:36:38.425Z,15.05
2018-04-02T00:38:43.867Z,15.72
2018-04-02T00:40:50.039Z,14.71
2018-04-02T00:42:55.584Z,15.24
2018-04-02T00:45:01.168Z,15.02
2018-04-02T00:47:08.178Z,15.80
2018-04-02T00:49:13.884Z,15.79
2018-04-02T00:51:20.155Z,16.41
2018-04-02T00:53:26.889Z,14.64
2018-04-02T00:55:32.151Z,15.49
2018-04-02T00:57:37.500Z,15.01
2018-04-02T00:59:43.361Z,15.89
2018-04-02T01:01:48.718Z,16.07
2018-04-02T01:03:55.116Z,15.73
2018-04-02T01:06:01.738Z,15.18
2018-04-02T01:08:07.058Z,15.34
2018-04-02T01:10:12.695Z,15.02
2018-04-02T01:12:19.428Z,15.07
2018-04-02T01:14:25.044Z,15.72
2018-04-02T01:16:30.884Z,15.08
2018-04-02T01:18:36.868Z,15.83
2018-04-02T01:20:42.396Z,16.12
2018-04-02T01:22:47.772Z,15.68
2018-04-02T01:24:54.598Z,15.51
2018-04-02T01:27:00.310Z,15.56
2018-04-02T01:29:06.120Z,15.32
2018-04-02T01:31:12.344Z,14.72
2018-04-02T01:33:18.014Z,15.11
2018-04-02T01:35:24.016Z,15.18
2018-04-02T01:37:30.708Z,15.93
2018-04-02T01:39:37.044Z,15.63
2018-04-02T01:41:42.556Z,15.67
2018-04-02T01:43:48.164Z,15.58
2018-04-02T01:45:53.456Z,15.34
2018-04-02T01:47:59.488Z,15.39
2018-04-02T01:50:05.064Z,15.44
2018-04-02T01:52:10.400Z,15.45
2018-04-02T01:54:15.677Z,15.88
2018-04-02T01:56:21.920Z,16.00
2018-04-02T01:58:28.468Z,15.99
2018-04-02T02:00:34.048Z,14.91
2018-04-02T02:02:40.320Z,14.89
2018-04-02T02:04:46.272Z,15.00
2018-04-02T02:06:52.251Z,15.21
2018-04-02T02:08:58.888Z,15.09
2018-04-02T02:11:05.279Z,14.97
2018-04-02T02:13:10.631Z,14.77
2018-04-02T02:15:16.141Z,14.94
2018-04-02T02:17:22.103Z,15.15
2018-04-02T02:19:28.112Z,15.27
2018-04-02T02:21:33.350Z,15.41
2018-04-02T02:23:39.635Z,14.90
2018-04-02T02:25:45.399Z,15.10
2018-04-02T02:27:51.516Z,15.43
2018-04-02T02:29:57.814Z,15.50
2018-04-02T02:32:04.188Z,15.33
2018-04-02T02:34:10.016Z,15.24
2018-04-02T02:36:15.880Z,14.85
2018-04-02T02:38:22.123Z,15.04
2018-04-02T02:40:27.501Z,14.78
2018-04-02T02:42:33.930Z,14.60
2018-04-02T02:44:40.478Z,15.10
2018-04-02T02:46:47.006Z,15.43
2018-04-02T02:48:52.752Z,14.70
2018-04-02T02:50:58.197Z,15.42
2018-04-02T02:53:04.498Z,15.50
2018-04-02T02:55:10.355Z,16.17
2018-04-02T02:57:16.433Z,15.40
2018-04-02T02:59:23.224Z,15.63
2018-04-02T03:01:28.601Z,15.69
2018-04-02T03:03:33.897Z,14.59
2018-04-02T03:05:39.612Z,14.76
2018-04-02T03:07:46.066Z,14.70
2018-04-02T03:09:53.019Z,14.38
2018-04-02T03:11:59.184Z,14.87
2018-04-02T03:14:04.902Z,14.34
2018-04-02T03:16:11.949Z,14.84
2018-04-02T03:18:18.067Z,14.85
2018-04-02T03:20:23.965Z,15.57
2018-04-02T03:22:30.665Z,14.87
2018-04-02T03:24:36.389Z,14.97
2018-04-02T03:26:42.241Z,15.41
2018-04-02T03:28:49.204Z,14.85
2018-04-02T03:30:55.607Z,15.15
2018-04-02T03:33:01.385Z,15.59
2018-04-02T03:35:08.212Z,15.57
2018-04-02T03:37:14.060Z,14.87
2018-04-02T03:39:19.308Z,14.74
2018-04-02T03:41:25.992Z,15.17
2018-04-02T03:43:31.970Z,15.42
2018-04-02T03:45:38.172Z,15.16
2018-04-02T03:47:44.873Z,15.40
2018-04-02T03:49:50.212Z,14.97
2018-04-02T03:51:55.930Z,14.94
2018-04-02T03:54:01.922Z,15.05
2018-04-02T03:56:07.773Z,15.53
2018-04-02T03:58:14.534Z,15.50
2018-04-02T04:00:21.108Z,14.98
2018-04-02T04:02:27.057Z,15.38
2018-04-02T04:04:33.192Z,15.15
2018-04-02T04:06:39.096Z,14.55
2018-04-02T04:08:45.609Z,15.45
2018-04-02T04:10:51.656Z,15.36
2018-04-02T04:12:57.348Z,15.08
2018-04-02T04:15:03.732Z,15.35
2018-04-02T04:17:09.198Z,14.65
2018-04-02T04:19:14.899Z,15.43
2018-04-02T04:21:20.196Z,14.91
2018-04-02T04:23:27.268Z,15.35
2018-04-02T04:25:33.825Z,15.76
2018-04-02T04:27:39.967Z,14.82
2018-04-02T04:29:46.408Z,15.23
2018-04-02T04:31:52.368Z,14.86
2018-04-02T04:33:58.400Z,15.25
2018-04-02T04:36:04.810Z,15.13
2018-04-02T04:38:11.528Z,15.07
2018-04-02T04:40:18.025Z,15.16
2018-04-02T04:42:23.634Z,15.06
2018-04-02T04:44:29.821Z,14.52
2018-04-02T04:46:35.400Z,15.41
2018-04-02T04:48:40.701Z,16.10
2018-04-02T04:50:46.568Z,16.21
2018-04-02T04:52:53.154Z,14.97
2018-04-02T04:54:58.875Z,15.59
2018-04-02T04:57:04.220Z,15.24
2018-04-02T04:59:10.207Z,15.84
2018-04-02T05:01:16.113Z,15.13
2018-04-02T05:03:21.996Z,15.20
2018-04-02T05:05:27.668Z,15.55
2018-04-02T05:07:33.704Z,15.51
2018-04-02T05:09:40.864Z,15.24
2018-04-02T05:11:46.956Z,14.80
2018-04-02T05:13:52.576Z,15.14
2018-04-02T05:15:59.760Z,15.59
2018-04-02T05:18:05.512Z,15.96
2018-04-02T05:20:11.037Z,15.31
2018-04-02T05:22:17.383Z,15.72
2018-04-02T05:24:23.500Z,15.62
2018-04-02T05:26:29.696Z,15.32
2018-04-02T05:30:50.196Z,15.18
2018-04-02T05:32:59.699Z,15.28
2018-04-02T05:35:05.942Z,15.55
2018-04-02T05:37:11.438Z,15.89
2018-04-02T05:39:17.428Z,15.78
2018-04-02T05:41:23.719Z,16.59
2018-04-02T05:43:29.846Z,16.77
2018-04-02T05:45:35.403Z,16.54
2018-04-02T05:47:41.027Z,15.90
2018-04-02T05:49:46.925Z,15.71
2018-04-02T05:51:52.928Z,15.87
2018-04-02T05:53:59.289Z,15.98
2018-04-02T05:56:05.524Z,15.49
2018-04-02T05:58:11.605Z,16.05
2018-04-02T06:00:17.409Z,16.26
2018-04-02T06:02:23.525Z,16.10
2018-04-02T06:04:29.027Z,15.23
2018-04-02T06:06:34.519Z,15.42
2018-04-02T06:08:40.515Z,15.40
2018-04-02T06:10:46.224Z,16.31
2018-04-02T06:12:52.784Z,15.99
2018-04-02T06:14:59.481Z,16.35
2018-04-02T06:17:06.533Z,16.39
2018-04-02T06:19:12.092Z,16.35
2018-04-02T06:21:18.855Z,15.93
2018-04-02T06:23:24.811Z,15.94
2018-04-02T06:25:30.565Z,16.12
2018-04-02T06:27:36.348Z,15.59
2018-04-02T06:29:42.518Z,15.75
2018-04-02T06:31:48.716Z,15.65
2018-04-02T06:33:54.826Z,16.12
2018-04-02T06:36:00.888Z,16.29
2018-04-02T06:38:06.619Z,16.50
2018-04-02T06:40:13.086Z,16.80
2018-04-02T06:42:19.529Z,17.16
2018-04-02T06:44:25.249Z,17.32
2018-04-02T06:46:31.731Z,17.27
2018-04-02T06:48:37.688Z,16.96
2018-04-02T06:50:43.561Z,17.11
2018-04-02T06:52:49.930Z,15.98
2018-04-02T06:54:55.636Z,16.09
2018-04-02T06:57:01.557Z,15.94
2018-04-02T06:59:07.238Z,16.20
2018-04-02T07:01:13.633Z,16.53
2018-04-02T07:03:20.829Z,16.70
2018-04-02T07:05:28.110Z,16.29
2018-04-02T07:07:33.594Z,16.19
2018-04-02T07:09:39.361Z,16.41
2018-04-02T07:11:46.387Z,16.52
2018-04-02T07:13:51.915Z,16.64
2018-04-02T07:15:58.359Z,16.29
2018-04-02T07:18:07.118Z,16.13
2018-04-02T07:20:17.055Z,15.61
2018-04-02T07:22:27.518Z,16.24
2018-04-02T07:24:33.200Z,16.75
2018-04-02T07:26:38.624Z,17.23
2018-04-02T07:28:44.805Z,16.98
2018-04-02T07:30:50.610Z,17.17
2018-04-02T07:32:56.856Z,17.29
2018-04-02T07:35:02.538Z,17.12
2018-04-02T07:37:08.376Z,17.42
2018-04-02T07:39:14.596Z,17.46
2018-04-02T07:41:20.064Z,17.20
2018-04-02T07:43:26.168Z,17.01
2018-04-02T07:45:32.764Z,16.84
2018-04-02T07:47:38.741Z,17.15
2018-04-02T07:49:45.652Z,17.18
2018-04-02T07:51:51.684Z,16.93
2018-04-02T07:53:58.078Z,17.01
2018-04-02T07:56:04.136Z,16.61
2018-04-02T07:58:09.489Z,17.09
2018-04-02T08:00:14.850Z,17.08
2018-04-02T08:02:21.865Z,17.24
2018-04-02T08:04:27.488Z,17.08
2018-04-02T08:06:32.880Z,17.66
2018-04-02T08:08:38.594Z,17.52
2018-04-02T08:10:44.176Z,17.62
2018-04-02T08:12:49.940Z,17.44
2018-04-02T08:14:57.092Z,17.48
2018-04-02T08:17:02.653Z,17.52
2018-04-02T08:19:08.573Z,17.46
2018-04-02T08:21:15.008Z,17.41
2018-04-02T08:23:21.012Z,17.38
2018-04-02T08:25:26.838Z,16.92
2018-04-02T08:27:32.956Z,17.34
2018-04-02T08:29:39.057Z,17.48
2018-04-02T08:31:44.799Z,16.78
2018-04-02T08:33:50.364Z,17.04
2018-04-02T08:35:56.428Z,17.52
2018-04-02T08:38:02.219Z,17.46
2018-04-02T08:40:08.245Z,16.94
2018-04-02T08:42:13.592Z,17.25
2018-04-02T08:44:19.029Z,17.07
2018-04-02T08:46:25.473Z,17.11
2018-04-02T08:48:31.104Z,17.04
2018-04-02T08:50:36.596Z,17.02
2018-04-02T08:52:42.332Z,16.91
2018-04-02T08:54:48.322Z,16.98
2018-04-02T08:56:54.369Z,17.08
2018-04-02T08:58:59.957Z,17.49
2018-04-02T09:01:05.231Z,17.07
2018-04-02T09:03:11.156Z,16.91
2018-04-02T09:05:16.769Z,16.99
2018-04-02T09:07:22.630Z,16.81
2018-04-02T09:09:28.100Z,16.84
2018-04-02T09:11:34.161Z,17.38
2018-04-02T09:13:39.621Z,17.30
2018-04-02T09:15:48.735Z,17.55
2018-04-02T09:17:55.091Z,17.15
2018-04-02T09:20:00.741Z,17.68
2018-04-02T09:22:06.058Z,17.33
2018-04-02T09:24:12.925Z,17.55
2018-04-02T09:26:19.884Z,17.82
2018-04-02T09:28:26.296Z,17.83
2018-04-02T09:30:31.975Z,17.69
2018-04-02T09:32:37.284Z,17.58
2018-04-02T09:34:43.343Z,17.61
2018-04-02T09:36:49.052Z,17.36
2018-04-02T09:38:54.356Z,17.16
2018-04-02T09:40:59.784Z,16.78
2018-04-02T09:43:06.790Z,16.97
2018-04-02T09:45:12.451Z,17.83
2018-04-02T09:47:17.792Z,17.85
2018-04-02T09:49:23.377Z,17.83
2018-04-02T09:51:28.726Z,17.74
2018-04-02T09:53:34.071Z,18.08
2018-04-02T09:55:39.769Z,18.03
2018-04-02T09:57:45.112Z,17.96
2018-04-02T09:59:50.389Z,18.35
2018-04-02T10:01:56.350Z,18.23
2018-04-02T10:04:03.081Z,18.28
2018-04-02T10:06:09.249Z,18.12
2018-04-02T10:08:14.875Z,18.77
2018-04-02T10:10:20.832Z,18.85
2018-04-02T10:12:26.312Z,19.17
2018-04-02T10:14:31.870Z,19.29
2018-04-02T10:16:37.257Z,19.02
2018-04-02T10:18:42.762Z,18.75
2018-04-02T10:20:48.476Z,18.50
2018-04-02T10:22:53.870Z,18.54
2018-04-02T10:24:59.248Z,18.24
2018-04-02T10:27:04.908Z,18.10
2018-04-02T10:29:10.261Z,18.45
2018-04-02T10:31:16.190Z,18.53
2018-04-02T10:33:22.063Z,18.23
2018-04-02T10:35:27.397Z,18.14
2018-04-02T10:37:32.816Z,18.00
2018-04-02T10:39:38.772Z,18.47
2018-04-02T10:41:44.136Z,18.47
2018-04-02T10:43:50.018Z,18.88
2018-04-02T10:45:55.728Z,18.65
2018-04-02T10:48:01.025Z,18.58
2018-04-02T10:50:06.788Z,18.57
2018-04-02T10:52:13.080Z,18.57
2018-04-02T10:54:18.303Z,18.48
2018-04-02T10:56:25.513Z,18.52
2018-04-02T10:58:31.161Z,18.56
2018-04-02T11:00:36.857Z,18.59
2018-04-02T11:02:42.220Z,18.89
2018-04-02T11:04:47.875Z,19.47
2018-04-02T11:06:53.189Z,19.43
2018-04-02T11:08:58.684Z,19.42
2018-04-02T11:11:05.132Z,19.59
2018-04-02T11:13:10.556Z,19.76
2018-04-02T11:15:15.953Z,19.53
2018-04-02T11:17:21.745Z,19.11
2018-04-02T11:19:27.721Z,19.45
2018-04-02T11:21:33.080Z,19.14
2018-04-02T11:23:38.644Z,19.36
2018-04-02T11:25:44.008Z,19.40
2018-04-02T11:27:49.375Z,19.50
2018-04-02T11:29:54.970Z,19.18
2018-04-02T11:32:00.456Z,19.83
2018-04-02T11:34:05.808Z,19.75
2018-04-02T11:36:11.407Z,19.11
2018-04-02T11:38:16.790Z,19.24
2018-04-02T11:40:22.154Z,19.77
2018-04-02T11:42:27.888Z,19.89
2018-04-02T11:44:33.114Z,19.55
2018-04-02T11:46:38.444Z,19.55
2018-04-02T11:48:43.976Z,19.20
2018-04-02T11:50:49.265Z,19.30
2018-04-02T11:52:54.668Z,19.32
2018-04-02T11:55:00.191Z,19.18
2018-04-02T11:57:06.376Z,19.30
2018-04-02T12:03:19.064Z,19.32
2018-04-02T12:05:24.367Z,19.65
2018-04-02T12:07:29.914Z,19.69
2018-04-02T12:09:36.256Z,19.34
2018-04-02T12:11:42.135Z,19.36
2018-04-02T12:13:47.440Z,19.21
2018-04-02T12:15:53.212Z,19.60
2018-04-02T12:17:59.198Z,19.52
2018-04-02T12:20:05.766Z,19.72
2018-04-02T12:22:17.136Z,20.43
2018-04-02T12:24:23.688Z,19.84
2018-04-02T12:26:29.744Z,19.71
2018-04-02T12:28:35.644Z,19.85
2018-04-02T12:30:41.657Z,21.88
2018-04-02T12:32:46.918Z,22.49
2018-04-02T12:34:52.681Z,23.39
2018-04-02T12:36:58.580Z,23.56
2018-04-02T12:39:04.622Z,24.00
2018-04-02T12:41:14.578Z,21.88
2018-04-02T12:43:19.895Z,20.47
2018-04-02T12:45:25.918Z,19.76
2018-04-02T12:47:31.623Z,19.48
2018-04-02T12:49:36.925Z,21.05
2018-04-02T12:51:42.500Z,23.91
2018-04-02T12:53:48.885Z,25.03
2018-04-02T12:55:54.261Z,24.31
2018-04-02T12:57:59.596Z,23.88
2018-04-02T13:00:05.442Z,22.81
2018-04-02T13:04:25.083Z,21.91
2018-04-02T13:06:31.813Z,21.30
2018-04-02T13:08:37.182Z,21.52
2018-04-02T13:10:42.514Z,22.07
2018-04-02T13:12:48.223Z,22.89
2018-04-02T13:14:58.713Z,23.54
2018-04-02T13:17:04.716Z,24.11
2018-04-02T13:19:10.492Z,23.60
2018-04-02T13:21:16.520Z,24.07
2018-04-02T13:23:22.464Z,22.75
2018-04-02T13:25:29.059Z,23.31
2018-04-02T13:27:34.385Z,22.51
2018-04-02T13:29:39.700Z,23.30
2018-04-02T13:31:45.563Z,22.74
2018-04-02T13:33:50.988Z,22.61
2018-04-02T13:35:56.532Z,22.40
2018-04-02T13:38:02.205Z,22.44
2018-04-02T13:40:07.528Z,22.40
2018-04-02T13:42:12.870Z,22.11
2018-04-02T13:44:18.624Z,22.11
2018-04-02T13:46:24.576Z,22.27
2018-04-02T13:48:29.892Z,22.50
2018-04-02T13:50:35.947Z,22.01
2018-04-02T13:52:40.840Z,22.14
2018-04-02T13:54:46.596Z,22.33
2018-04-02T13:56:52.134Z,22.34
2018-04-02T13:58:58.011Z,22.52
2018-04-02T14:01:03.313Z,22.99
2018-04-02T14:03:09.009Z,23.21
2018-04-02T14:05:14.512Z,22.94
2018-04-02T14:07:19.780Z,23.28
2018-04-02T14:09:26.061Z,23.81
2018-04-02T14:11:31.310Z,24.00
2018-04-02T14:13:36.701Z,24.06
2018-04-02T14:15:42.343Z,23.96
2018-04-02T14:17:47.641Z,23.94
2018-04-02T14:19:53.075Z,23.21
2018-04-02T14:21:59.331Z,23.25
2018-04-02T14:24:04.798Z,22.96
2018-04-02T14:26:10.033Z,23.32
2018-04-02T14:28:15.712Z,22.93
2018-04-02T14:30:21.128Z,23.22
2018-04-02T14:32:26.579Z,23.13
2018-04-02T14:34:32.593Z,23.06
2018-04-02T14:36:37.940Z,23.26
2018-04-02T14:38:44.026Z,23.61
2018-04-02T14:40:49.669Z,23.37
2018-04-02T14:42:56.217Z,23.06
2018-04-02T14:45:01.625Z,23.12
2018-04-02T14:47:07.397Z,22.44
2018-04-02T14:49:14.173Z,22.69
2018-04-02T14:51:19.529Z,22.74
2018-04-02T14:53:25.929Z,22.25
2018-04-02T14:55:31.319Z,22.22
2018-04-02T14:57:36.735Z,22.47
2018-04-02T14:59:46.762Z,22.77
2018-04-02T15:01:52.550Z,22.47
2018-04-02T15:03:57.994Z,22.37
2018-04-02T15:06:03.738Z,22.07
2018-04-02T15:08:08.956Z,22.35
2018-04-02T15:10:14.405Z,22.31
2018-04-02T15:12:20.382Z,22.10
2018-04-02T15:14:26.198Z,22.24
2018-04-02T15:16:31.536Z,22.49
2018-04-02T15:18:37.124Z,22.59
2018-04-02T15:20:42.453Z,21.99
2018-04-02T15:22:47.832Z,22.10
2018-04-02T15:24:53.491Z,22.54
2018-04-02T15:26:58.856Z,22.37
2018-04-02T15:29:04.313Z,22.00
2018-04-02T15:31:10.162Z,22.33
2018-04-02T15:33:15.484Z,22.41
2018-04-02T15:35:20.884Z,22.02
2018-04-02T15:37:26.705Z,21.27
2018-04-02T15:39:32.063Z,21.20
2018-04-02T15:41:37.441Z,21.02
2018-04-02T15:43:43.073Z,21.42
2018-04-02T15:45:48.509Z,21.54
2018-04-02T15:47:53.845Z,21.14
2018-04-02T15:49:59.739Z,21.48
2018-04-02T15:52:05.100Z,21.65
2018-04-02T15:54:10.512Z,21.07
2018-04-02T15:56:16.265Z,21.26
2018-04-02T15:58:21.730Z,20.92
2018-04-02T16:00:27.640Z,20.87
2018-04-02T16:02:33.419Z,21.10
2018-04-02T16:04:38.759Z,21.11
2018-04-02T16:06:44.190Z,21.15
2018-04-02T16:08:49.852Z,21.23
2018-04-02T16:10:55.217Z,21.50
2018-04-02T16:13:00.561Z,20.99
2018-04-02T16:15:07.536Z,20.90
2018-04-02T16:19:23.417Z,20.84
2018-04-02T16:21:29.043Z,20.77
2018-04-02T16:23:34.410Z,20.63
2018-04-02T16:25:40.109Z,20.91
2018-04-02T16:27:49.324Z,20.24
2018-04-02T16:29:55.521Z,20.69
2018-04-02T16:32:01.171Z,20.81
2018-04-02T16:34:12.738Z,20.63
2018-04-02T16:36:18.330Z,20.66
2018-04-02T16:38:23.820Z,20.82
2018-04-02T16:40:29.798Z,20.61
2018-04-02T16:42:35.772Z,20.58
2018-04-02T16:44:41.031Z,20.85
2018-04-02T16:46:46.678Z,20.90
2018-04-02T16:48:52.052Z,21.01
2018-04-02T16:50:57.533Z,20.99
2018-04-02T16:53:03.294Z,20.93
2018-04-02T16:55:08.637Z,20.79
2018-04-02T16:57:14.237Z,20.57
2018-04-02T16:59:19.885Z,20.65
2018-04-02T17:01:26.788Z,20.68
2018-04-02T17:03:32.343Z,20.51
2018-04-02T17:05:38.070Z,20.65
2018-04-02T17:07:43.435Z,20.58
2018-04-02T17:09:48.784Z,20.47
2018-04-02T17:11:54.440Z,20.18
2018-04-02T17:13:59.931Z,20.23
2018-04-02T17:16:05.353Z,20.34
2018-04-02T17:18:11.075Z,20.39
2018-04-02T17:20:16.544Z,20.27
2018-04-02T17:22:21.865Z,20.06
2018-04-02T17:24:27.530Z,20.53
2018-04-02T17:26:32.951Z,20.21
2018-04-02T17:28:38.297Z,20.46
2018-04-02T17:30:43.953Z,20.72
2018-04-02T17:32:49.251Z,20.46
2018-04-02T17:34:54.640Z,20.76
2018-04-02T17:37:00.216Z,20.73
2018-04-02T17:39:06.386Z,20.81
2018-04-02T17:41:11.807Z,20.61
2018-04-02T17:43:17.737Z,20.57
2018-04-02T17:45:23.093Z,20.73
2018-04-02T17:47:28.676Z,20.55
2018-04-02T17:49:34.524Z,20.74
2018-04-02T17:51:39.946Z,20.77
2018-04-02T17:53:45.736Z,20.75
2018-04-02T17:55:51.453Z,20.88
2018-04-02T17:57:57.047Z,20.77
2018-04-02T18:00:02.713Z,20.50
2018-04-02T18:02:09.593Z,20.44
2018-04-02T18:04:14.986Z,20.69
2018-04-02T18:06:21.480Z,20.64
2018-04-02T18:08:27.528Z,20.39
2018-04-02T18:10:33.130Z,20.54
2018-04-02T18:12:38.588Z,19.94
2018-04-02T18:14:44.205Z,20.47
2018-04-02T18:16:49.888Z,20.11
2018-04-02T18:18:55.391Z,19.94
2018-04-02T18:21:01.771Z,20.00
2018-04-02T18:23:07.113Z,20.32
2018-04-02T18:25:12.631Z,19.84
2018-04-02T18:27:18.463Z,19.98
2018-04-02T18:29:23.848Z,20.30
2018-04-02T18:31:29.501Z,20.21
2018-04-02T18:33:35.186Z,20.15
2018-04-02T18:35:40.680Z,20.15
2018-04-02T18:37:47.624Z,20.26
2018-04-02T18:39:54.406Z,20.25
2018-04-02T18:42:00.215Z,20.15
2018-04-02T18:44:05.760Z,20.25
2018-04-02T18:46:11.664Z,20.48
2018-04-02T18:48:17.018Z,20.54
2018-04-02T18:50:22.406Z,20.43
2018-04-02T18:52:28.382Z,20.10
2018-04-02T18:54:34.167Z,20.25
2018-04-02T18:56:39.872Z,20.00
2018-04-02T18:58:45.649Z,20.11
2018-04-02T19:00:51.107Z,20.24
2018-04-02T19:02:56.412Z,19.87
2018-04-02T19:05:02.135Z,19.96
2018-04-02T19:07:07.671Z,19.96
2018-04-02T19:09:13.968Z,20.35
2018-04-02T19:11:19.702Z,20.50
2018-04-02T19:13:25.365Z,19.92
2018-04-02T19:15:31.147Z,20.22
2018-04-02T19:17:39.006Z,19.89
2018-04-02T19:19:47.119Z,20.12
2018-04-02T19:21:52.539Z,19.86
2018-04-02T19:23:58.304Z,20.05
2018-04-02T19:26:03.599Z,19.80
2018-04-02T19:28:09.193Z,20.02
2018-04-02T19:30:15.548Z,20.07
2018-04-02T19:32:20.933Z,19.90
2018-04-02T19:34:26.338Z,19.93
2018-04-02T19:36:32.167Z,19.94
2018-04-02T19:38:38.733Z,20.33
2018-04-02T19:40:44.167Z,20.44
2018-04-02T19:42:50.041Z,20.06
2018-04-02T19:44:55.356Z,20.20
2018-04-02T19:47:00.792Z,20.10
2018-04-02T19:49:06.888Z,20.32
2018-04-02T19:51:13.021Z,20.32
2018-04-02T19:53:19.679Z,20.23
2018-04-02T19:55:25.488Z,20.31
2018-04-02T19:57:30.796Z,20.16
2018-04-02T19:59:37.490Z,19.96
2018-04-02T20:01:43.273Z,19.82
2018-04-02T20:03:48.852Z,19.89
2018-04-02T20:05:54.704Z,19.94
2018-04-02T20:08:00.671Z,20.10
2018-04-02T20:10:06.309Z,20.08
2018-04-02T20:12:12.996Z,20.16
2018-04-02T20:14:19.288Z,19.90
2018-04-02T20:16:24.793Z,19.94
2018-04-02T20:18:30.888Z,19.71
2018-04-02T20:20:37.483Z,19.91
2018-04-02T20:22:43.461Z,19.72
2018-04-02T20:24:49.120Z,19.68
2018-04-02T20:26:55.468Z,19.86
2018-04-02T20:29:01.024Z,19.76
2018-04-02T20:31:06.369Z,19.87
2018-04-02T20:33:12.946Z,19.72
2018-04-02T20:35:18.224Z,19.87
2018-04-02T20:37:23.806Z,19.88
2018-04-02T20:39:29.844Z,20.14
2018-04-02T20:41:35.311Z,20.17
2018-04-02T20:43:40.724Z,20.24
2018-04-02T20:45:46.391Z,20.13
2018-04-02T20:47:51.807Z,20.34
2018-04-02T20:49:57.230Z,19.83
2018-04-02T20:52:03.664Z,20.25
2018-04-02T20:54:09.473Z,20.38
2018-04-02T20:56:14.800Z,19.91
2018-04-02T20:58:20.564Z,20.43
2018-04-02T21:00:25.882Z,20.20
2018-04-02T21:02:31.148Z,20.26
2018-04-02T21:04:37.052Z,20.03
2018-04-02T21:06:42.460Z,19.93
2018-04-02T21:08:49.124Z,19.78
2018-04-02T21:10:55.184Z,19.62
2018-04-02T21:13:00.928Z,19.72
2018-04-02T21:15:06.431Z,19.73
2018-04-02T21:17:12.477Z,19.79
2018-04-02T21:19:17.992Z,19.52
2018-04-02T21:21:23.415Z,19.52
2018-04-02T21:23:29.102Z,19.37
2018-04-02T21:25:34.792Z,19.44
2018-04-02T21:27:40.223Z,19.46
2018-04-02T21:29:46.096Z,19.31
2018-04-02T21:31:56.612Z,19.33
2018-04-02T21:34:03.673Z,19.30
2018-04-02T21:36:23.948Z,19.27
2018-04-02T21:38:32.109Z,19.32
2018-04-02T21:40:43.567Z,19.40
2018-04-02T21:43:02.305Z,18.99
2018-04-02T21:45:08.088Z,19.29
2018-04-02T21:47:15.240Z,19.51
2018-04-02T21:49:22.618Z,19.68
2018-04-02T21:51:29.933Z,19.79
2018-04-02T21:53:35.930Z,19.50
2018-04-02T21:55:42.213Z,19.56
2018-04-02T21:57:47.752Z,19.62
2018-04-02T21:59:53.120Z,19.44
2018-04-02T22:01:59.543Z,19.42
2018-04-02T22:04:05.283Z,19.35
2018-04-02T22:06:15.704Z,19.33
2018-04-02T22:08:21.263Z,19.17
2018-04-02T22:10:26.686Z,19.33
2018-04-02T22:12:32.028Z,18.82
2018-04-02T22:14:37.619Z,18.94
2018-04-02T22:16:42.900Z,19.07
2018-04-02T22:18:48.189Z,18.99
2018-04-02T22:20:53.768Z,19.14
2018-04-02T22:22:59.061Z,19.19
2018-04-02T22:25:04.548Z,18.97
2018-04-02T22:27:10.173Z,18.88
2018-04-02T22:29:15.444Z,19.17
2018-04-02T22:31:21.868Z,18.89
2018-04-02T22:33:27.540Z,18.78
2018-04-02T22:35:32.896Z,18.86
2018-04-02T22:37:38.388Z,18.92
2018-04-02T22:39:44.841Z,19.16
2018-04-02T22:41:50.210Z,18.76
2018-04-02T22:43:55.508Z,19.00
2018-04-02T22:46:01.541Z,19.06
2018-04-02T22:48:06.816Z,19.06
2018-04-02T22:50:13.235Z,18.88
2018-04-02T22:52:20.324Z,19.07
2018-04-02T22:54:25.741Z,19.00
2018-04-02T22:56:31.295Z,19.27
2018-04-02T22:58:36.959Z,19.59
2018-04-02T23:00:42.668Z,19.51
2018-04-02T23:02:48.097Z,19.63
2018-04-02T23:04:53.672Z,19.60
2018-04-02T23:06:59.015Z,19.43
2018-04-02T23:09:04.704Z,19.49
2018-04-02T23:11:10.228Z,19.24
2018-04-02T23:13:15.468Z,19.07
2018-04-02T23:15:20.791Z,19.40
2018-04-02T23:17:26.392Z,19.27
2018-04-02T23:19:31.725Z,19.49
2018-04-02T23:21:37.008Z,19.41
2018-04-02T23:23:42.625Z,19.04
2018-04-02T23:25:47.943Z,19.30
2018-04-02T23:27:53.200Z,19.20
2018-04-02T23:29:58.835Z,19.15
2018-04-02T23:32:04.714Z,19.05
2018-04-02T23:34:09.952Z,19.36
2018-04-02T23:36:15.610Z,19.38
2018-04-02T23:38:21.241Z,19.54
2018-04-02T23:40:26.522Z,19.43
2018-04-02T23:42:32.116Z,19.54
2018-04-02T23:44:37.401Z,19.47
2018-04-02T23:46:42.736Z,19.46
2018-04-02T23:48:48.315Z,19.32
2018-04-02T23:50:54.343Z,19.13
2018-04-02T23:53:00.602Z,19.14
2018-04-02T23:55:09.596Z,19.16
2018-04-02T23:57:24.741Z,18.94
2018-04-02T23:59:35.320Z,18.95
